sensor_id;sensor_type;location;lat;lon;timestamp;temperature;humidity
21891;DHT22;11110;52.386;16.940;2023-07-31T00:00:06;31.40;45.20
21891;DHT22;11110;52.386;16.940;2023-07-31T00:02:56;31.40;45.10
21891;DHT22;11110;52.386;16.940;2023-07-31T00:05:25;31.40;45.70
21891;DHT22;11110;52.386;16.940;2023-07-31T00:07:55;31.40;45.30
21891;DHT22;11110;52.386;16.940;2023-07-31T00:10:23;31.50;45.20
21891;DHT22;11110;52.386;16.940;2023-07-31T00:12:52;31.40;45.20
21891;DHT22;11110;52.386;16.940;2023-07-31T00:15:20;31.40;45.30
21891;DHT22;11110;52.386;16.940;2023-07-31T00:17:49;31.30;45.20
21891;DHT22;11110;52.386;16.940;2023-07-31T00:20:17;31.40;45.40
21891;DHT22;11110;52.386;16.940;2023-07-31T00:22:46;31.40;45.30
21891;DHT22;11110;52.386;16.940;2023-07-31T00:25:16;31.40;45.20
21891;DHT22;11110;52.386;16.940;2023-07-31T00:27:44;31.30;45.30
21891;DHT22;11110;52.386;16.940;2023-07-31T00:30:13;31.30;45.30
21891;DHT22;11110;52.386;16.940;2023-07-31T00:32:42;31.30;45.40
21891;DHT22;11110;52.386;16.940;2023-07-31T00:35:11;31.30;45.30
21891;DHT22;11110;52.386;16.940;2023-07-31T00:37:39;31.30;45.40
21891;DHT22;11110;52.386;16.940;2023-07-31T00:40:08;31.30;45.50
21891;DHT22;11110;52.386;16.940;2023-07-31T00:42:38;31.30;45.40
21891;DHT22;11110;52.386;16.940;2023-07-31T00:45:08;31.30;45.40
21891;DHT22;11110;52.386;16.940;2023-07-31T00:47:37;31.30;45.40
21891;DHT22;11110;52.386;16.940;2023-07-31T00:50:07;31.20;45.40
21891;DHT22;11110;52.386;16.940;2023-07-31T00:52:36;31.20;45.40
21891;DHT22;11110;52.386;16.940;2023-07-31T00:55:05;31.20;45.40
21891;DHT22;11110;52.386;16.940;2023-07-31T00:57:35;31.10;45.30
21891;DHT22;11110;52.386;16.940;2023-07-31T01:00:07;31.10;45.40
21891;DHT22;11110;52.386;16.940;2023-07-31T01:02:36;31.20;45.50
21891;DHT22;11110;52.386;16.940;2023-07-31T01:05:06;31.10;45.40
21891;DHT22;11110;52.386;16.940;2023-07-31T01:07:41;31.10;45.40
21891;DHT22;11110;52.386;16.940;2023-07-31T01:10:14;31.10;45.40
21891;DHT22;11110;52.386;16.940;2023-07-31T01:12:45;31.00;45.40
21891;DHT22;11110;52.386;16.940;2023-07-31T01:15:17;31.00;45.50
21891;DHT22;11110;52.386;16.940;2023-07-31T01:17:45;31.00;45.50
21891;DHT22;11110;52.386;16.940;2023-07-31T01:20:16;31.00;45.50
21891;DHT22;11110;52.386;16.940;2023-07-31T01:23:11;30.90;45.50
21891;DHT22;11110;52.386;16.940;2023-07-31T01:25:53;30.90;45.40
21891;DHT22;11110;52.386;16.940;2023-07-31T01:28:27;31.00;45.60
21891;DHT22;11110;52.386;16.940;2023-07-31T01:30:58;30.90;45.60
21891;DHT22;11110;52.386;16.940;2023-07-31T01:33:28;30.90;45.60
21891;DHT22;11110;52.386;16.940;2023-07-31T01:35:57;30.90;45.70
21891;DHT22;11110;52.386;16.940;2023-07-31T01:38:26;30.90;45.80
21891;DHT22;11110;52.386;16.940;2023-07-31T01:40:56;30.80;46.30
21891;DHT22;11110;52.386;16.940;2023-07-31T01:43:25;30.80;45.70
21891;DHT22;11110;52.386;16.940;2023-07-31T01:45:54;30.80;45.80
21891;DHT22;11110;52.386;16.940;2023-07-31T01:48:24;30.80;45.80
21891;DHT22;11110;52.386;16.940;2023-07-31T01:50:52;30.80;46.40
21891;DHT22;11110;52.386;16.940;2023-07-31T01:53:21;30.80;45.80
21891;DHT22;11110;52.386;16.940;2023-07-31T01:55:49;30.80;45.80
21891;DHT22;11110;52.386;16.940;2023-07-31T01:58:19;30.70;45.70
21891;DHT22;11110;52.386;16.940;2023-07-31T02:00:47;30.70;45.80
21891;DHT22;11110;52.386;16.940;2023-07-31T02:03:16;30.70;45.90
21891;DHT22;11110;52.386;16.940;2023-07-31T02:05:45;30.80;46.00
21891;DHT22;11110;52.386;16.940;2023-07-31T02:08:14;30.70;46.60
21891;DHT22;11110;52.386;16.940;2023-07-31T02:10:42;30.70;46.00
21891;DHT22;11110;52.386;16.940;2023-07-31T02:13:11;30.60;46.00
21891;DHT22;11110;52.386;16.940;2023-07-31T02:15:41;30.70;46.10
21891;DHT22;11110;52.386;16.940;2023-07-31T02:18:09;30.60;46.00
21891;DHT22;11110;52.386;16.940;2023-07-31T02:20:38;30.60;46.00
21891;DHT22;11110;52.386;16.940;2023-07-31T02:23:07;30.60;46.20
21891;DHT22;11110;52.386;16.940;2023-07-31T02:25:35;30.60;46.20
21891;DHT22;11110;52.386;16.940;2023-07-31T02:28:04;30.50;46.20
21891;DHT22;11110;52.386;16.940;2023-07-31T02:30:32;30.50;46.30
21891;DHT22;11110;52.386;16.940;2023-07-31T02:33:04;30.50;46.40
21891;DHT22;11110;52.386;16.940;2023-07-31T02:35:33;30.40;46.40
21891;DHT22;11110;52.386;16.940;2023-07-31T02:38:01;30.40;46.50
21891;DHT22;11110;52.386;16.940;2023-07-31T02:40:32;30.40;46.50
21891;DHT22;11110;52.386;16.940;2023-07-31T02:43:01;30.40;46.50
21891;DHT22;11110;52.386;16.940;2023-07-31T02:45:30;30.40;46.70
21891;DHT22;11110;52.386;16.940;2023-07-31T02:47:58;30.40;46.80
21891;DHT22;11110;52.386;16.940;2023-07-31T02:50:29;30.40;46.80
21891;DHT22;11110;52.386;16.940;2023-07-31T02:52:59;30.30;46.70
21891;DHT22;11110;52.386;16.940;2023-07-31T02:55:27;30.30;46.80
21891;DHT22;11110;52.386;16.940;2023-07-31T02:57:57;30.30;46.80
21891;DHT22;11110;52.386;16.940;2023-07-31T03:00:26;30.30;46.80
21891;DHT22;11110;52.386;16.940;2023-07-31T03:02:55;30.20;46.80
21891;DHT22;11110;52.386;16.940;2023-07-31T03:05:23;30.20;46.90
21891;DHT22;11110;52.386;16.940;2023-07-31T03:07:53;30.20;46.80
21891;DHT22;11110;52.386;16.940;2023-07-31T03:10:23;30.20;46.90
21891;DHT22;11110;52.386;16.940;2023-07-31T03:12:52;30.20;46.90
21891;DHT22;11110;52.386;16.940;2023-07-31T03:15:20;30.10;46.90
21891;DHT22;11110;52.386;16.940;2023-07-31T03:17:48;30.20;47.00
21891;DHT22;11110;52.386;16.940;2023-07-31T03:20:17;30.10;47.00
21891;DHT22;11110;52.386;16.940;2023-07-31T03:22:46;30.00;47.00
21891;DHT22;11110;52.386;16.940;2023-07-31T03:25:16;30.00;47.10
21891;DHT22;11110;52.386;16.940;2023-07-31T03:27:45;30.00;47.20
21891;DHT22;11110;52.386;16.940;2023-07-31T03:30:13;30.00;47.30
21891;DHT22;11110;52.386;16.940;2023-07-31T03:32:42;29.90;47.30
21891;DHT22;11110;52.386;16.940;2023-07-31T03:35:11;30.00;47.40
21891;DHT22;11110;52.386;16.940;2023-07-31T03:37:39;29.90;47.40
21891;DHT22;11110;52.386;16.940;2023-07-31T03:40:09;29.90;47.40
21891;DHT22;11110;52.386;16.940;2023-07-31T03:42:39;29.90;47.50
21891;DHT22;11110;52.386;16.940;2023-07-31T03:45:08;29.90;47.50
21891;DHT22;11110;52.386;16.940;2023-07-31T03:47:37;29.80;47.60
21891;DHT22;11110;52.386;16.940;2023-07-31T03:50:07;29.80;47.70
21891;DHT22;11110;52.386;16.940;2023-07-31T03:52:36;29.80;47.70
21891;DHT22;11110;52.386;16.940;2023-07-31T03:55:05;29.80;47.80
21891;DHT22;11110;52.386;16.940;2023-07-31T03:57:34;29.70;47.80
21891;DHT22;11110;52.386;16.940;2023-07-31T04:00:05;29.70;47.80
21891;DHT22;11110;52.386;16.940;2023-07-31T04:02:38;29.70;47.80
21891;DHT22;11110;52.386;16.940;2023-07-31T04:05:07;29.60;48.60
21891;DHT22;11110;52.386;16.940;2023-07-31T04:07:37;29.70;47.90
21891;DHT22;11110;52.386;16.940;2023-07-31T04:10:06;29.70;48.30
21891;DHT22;11110;52.386;16.940;2023-07-31T04:12:38;29.70;48.10
21891;DHT22;11110;52.386;16.940;2023-07-31T04:15:08;29.70;48.00
21891;DHT22;11110;52.386;16.940;2023-07-31T04:17:37;29.70;48.10
21891;DHT22;11110;52.386;16.940;2023-07-31T04:20:07;29.70;48.10
21891;DHT22;11110;52.386;16.940;2023-07-31T04:22:35;29.70;48.20
21891;DHT22;11110;52.386;16.940;2023-07-31T04:25:04;29.70;48.20
21891;DHT22;11110;52.386;16.940;2023-07-31T04:27:33;29.70;48.20
21891;DHT22;11110;52.386;16.940;2023-07-31T04:30:02;29.60;48.00
21891;DHT22;11110;52.386;16.940;2023-07-31T04:32:32;29.60;48.00
21891;DHT22;11110;52.386;16.940;2023-07-31T04:35:01;29.70;48.10
21891;DHT22;11110;52.386;16.940;2023-07-31T04:37:29;29.60;48.80
21891;DHT22;11110;52.386;16.940;2023-07-31T04:39:58;29.70;48.20
21891;DHT22;11110;52.386;16.940;2023-07-31T04:42:26;29.70;48.20
21891;DHT22;11110;52.386;16.940;2023-07-31T04:44:55;29.70;48.20
21891;DHT22;11110;52.386;16.940;2023-07-31T04:47:24;29.70;48.30
21891;DHT22;11110;52.386;16.940;2023-07-31T04:49:54;29.60;48.20
21891;DHT22;11110;52.386;16.940;2023-07-31T04:52:22;29.70;48.30
21891;DHT22;11110;52.386;16.940;2023-07-31T04:54:51;29.70;48.30
21891;DHT22;11110;52.386;16.940;2023-07-31T04:57:19;29.70;48.20
21891;DHT22;11110;52.386;16.940;2023-07-31T04:59:48;29.70;48.30
21891;DHT22;11110;52.386;16.940;2023-07-31T05:02:17;29.70;48.30
21891;DHT22;11110;52.386;16.940;2023-07-31T05:04:46;29.70;48.30
21891;DHT22;11110;52.386;16.940;2023-07-31T05:07:16;29.60;48.20
21891;DHT22;11110;52.386;16.940;2023-07-31T05:09:45;29.70;48.20
21891;DHT22;11110;52.386;16.940;2023-07-31T05:12:13;29.70;48.30
21891;DHT22;11110;52.386;16.940;2023-07-31T05:14:42;29.70;48.30
21891;DHT22;11110;52.386;16.940;2023-07-31T05:17:10;29.70;48.30
21891;DHT22;11110;52.386;16.940;2023-07-31T05:19:39;30.10;48.60
21891;DHT22;11110;52.386;16.940;2023-07-31T05:22:07;29.60;48.20
21891;DHT22;11110;52.386;16.940;2023-07-31T05:24:37;29.70;48.40
21891;DHT22;11110;52.386;16.940;2023-07-31T05:27:06;29.70;48.30
21891;DHT22;11110;52.386;16.940;2023-07-31T05:29:36;29.70;48.20
21891;DHT22;11110;52.386;16.940;2023-07-31T05:32:06;29.70;48.20
21891;DHT22;11110;52.386;16.940;2023-07-31T05:34:34;29.70;48.20
21891;DHT22;11110;52.386;16.940;2023-07-31T05:37:03;29.70;48.20
21891;DHT22;11110;52.386;16.940;2023-07-31T05:39:32;29.60;48.10
21891;DHT22;11110;52.386;16.940;2023-07-31T05:42:03;29.70;48.20
21891;DHT22;11110;52.386;16.940;2023-07-31T05:44:31;29.70;48.30
21891;DHT22;11110;52.386;16.940;2023-07-31T05:46:59;29.70;48.50
21891;DHT22;11110;52.386;16.940;2023-07-31T05:49:28;29.70;48.40
21891;DHT22;11110;52.386;16.940;2023-07-31T05:51:56;29.70;48.40
21891;DHT22;11110;52.386;16.940;2023-07-31T05:54:25;29.80;48.40
21891;DHT22;11110;52.386;16.940;2023-07-31T05:56:53;29.80;48.60
21891;DHT22;11110;52.386;16.940;2023-07-31T05:59:23;29.80;48.50
21891;DHT22;11110;52.386;16.940;2023-07-31T06:01:52;29.90;48.50
21891;DHT22;11110;52.386;16.940;2023-07-31T06:04:20;29.90;48.50
21891;DHT22;11110;52.386;16.940;2023-07-31T06:06:52;29.90;48.30
21891;DHT22;11110;52.386;16.940;2023-07-31T06:09:20;29.90;48.30
21891;DHT22;11110;52.386;16.940;2023-07-31T06:11:49;29.90;48.20
21891;DHT22;11110;52.386;16.940;2023-07-31T06:14:17;29.90;47.50
21891;DHT22;11110;52.386;16.940;2023-07-31T06:16:47;30.10;48.30
21891;DHT22;11110;52.386;16.940;2023-07-31T06:19:16;30.00;48.20
21891;DHT22;11110;52.386;16.940;2023-07-31T06:21:44;30.20;48.30
21891;DHT22;11110;52.386;16.940;2023-07-31T06:24:13;30.20;48.10
21891;DHT22;11110;52.386;16.940;2023-07-31T06:26:46;30.20;48.00
21891;DHT22;11110;52.386;16.940;2023-07-31T06:29:15;30.30;48.00
21891;DHT22;11110;52.386;16.940;2023-07-31T06:31:43;30.30;47.80
21891;DHT22;11110;52.386;16.940;2023-07-31T06:34:13;30.40;47.80
21891;DHT22;11110;52.386;16.940;2023-07-31T06:36:42;30.40;47.90
21891;DHT22;11110;52.386;16.940;2023-07-31T06:39:10;30.40;47.80
21891;DHT22;11110;52.386;16.940;2023-07-31T06:41:39;30.40;47.40
21891;DHT22;11110;52.386;16.940;2023-07-31T06:44:10;30.50;47.40
21891;DHT22;11110;52.386;16.940;2023-07-31T06:46:38;30.50;47.20
21891;DHT22;11110;52.386;16.940;2023-07-31T06:49:07;30.50;46.90
21891;DHT22;11110;52.386;16.940;2023-07-31T06:51:37;30.50;46.90
21891;DHT22;11110;52.386;16.940;2023-07-31T06:54:05;30.60;46.80
21891;DHT22;11110;52.386;16.940;2023-07-31T06:56:34;30.60;46.80
21891;DHT22;11110;52.386;16.940;2023-07-31T06:59:07;30.60;46.80
21891;DHT22;11110;52.386;16.940;2023-07-31T07:01:35;30.70;46.90
21891;DHT22;11110;52.386;16.940;2023-07-31T07:04:04;30.70;46.70
21891;DHT22;11110;52.386;16.940;2023-07-31T07:06:33;30.80;46.80
21891;DHT22;11110;52.386;16.940;2023-07-31T07:09:03;30.80;46.70
21891;DHT22;11110;52.386;16.940;2023-07-31T07:11:31;30.80;46.60
21891;DHT22;11110;52.386;16.940;2023-07-31T07:14:00;30.90;46.60
21891;DHT22;11110;52.386;16.940;2023-07-31T07:16:28;30.90;46.30
21891;DHT22;11110;52.386;16.940;2023-07-31T07:18:57;30.90;45.90
21891;DHT22;11110;52.386;16.940;2023-07-31T07:21:31;30.90;45.80
21891;DHT22;11110;52.386;16.940;2023-07-31T07:24:00;30.90;45.80
21891;DHT22;11110;52.386;16.940;2023-07-31T07:26:30;31.00;45.70
21891;DHT22;11110;52.386;16.940;2023-07-31T07:28:58;31.00;45.70
21891;DHT22;11110;52.386;16.940;2023-07-31T07:31:29;31.00;45.60
21891;DHT22;11110;52.386;16.940;2023-07-31T07:33:58;31.00;45.70
21891;DHT22;11110;52.386;16.940;2023-07-31T07:36:27;31.00;45.60
21891;DHT22;11110;52.386;16.940;2023-07-31T07:38:56;31.10;45.30
21891;DHT22;11110;52.386;16.940;2023-07-31T07:41:25;31.10;45.20
21891;DHT22;11110;52.386;16.940;2023-07-31T07:43:54;31.10;44.60
21891;DHT22;11110;52.386;16.940;2023-07-31T07:46:23;31.10;44.60
21891;DHT22;11110;52.386;16.940;2023-07-31T07:48:52;31.10;44.20
21891;DHT22;11110;52.386;16.940;2023-07-31T07:51:20;31.10;44.40
21891;DHT22;11110;52.386;16.940;2023-07-31T07:53:49;31.00;44.50
21891;DHT22;11110;52.386;16.940;2023-07-31T07:56:18;31.10;44.60
21891;DHT22;11110;52.386;16.940;2023-07-31T07:58:48;31.10;44.40
21891;DHT22;11110;52.386;16.940;2023-07-31T08:01:18;31.00;44.40
21891;DHT22;11110;52.386;16.940;2023-07-31T08:03:47;31.10;44.60
21891;DHT22;11110;52.386;16.940;2023-07-31T08:06:17;31.00;44.50
21891;DHT22;11110;52.386;16.940;2023-07-31T08:08:45;31.10;44.40
21891;DHT22;11110;52.386;16.940;2023-07-31T08:11:13;31.00;43.90
21891;DHT22;11110;52.386;16.940;2023-07-31T08:13:42;31.10;44.00
21891;DHT22;11110;52.386;16.940;2023-07-31T08:16:11;31.10;44.10
21891;DHT22;11110;52.386;16.940;2023-07-31T08:18:40;31.00;44.00
21891;DHT22;11110;52.386;16.940;2023-07-31T08:21:10;31.10;44.30
21891;DHT22;11110;52.386;16.940;2023-07-31T08:23:38;31.00;44.80
21891;DHT22;11110;52.386;16.940;2023-07-31T08:26:07;31.00;44.90
21891;DHT22;11110;52.386;16.940;2023-07-31T08:28:35;31.10;44.70
21891;DHT22;11110;52.386;16.940;2023-07-31T08:31:04;31.10;44.70
21891;DHT22;11110;52.386;16.940;2023-07-31T08:33:32;31.20;44.80
21891;DHT22;11110;52.386;16.940;2023-07-31T08:36:03;31.10;44.30
21891;DHT22;11110;52.386;16.940;2023-07-31T08:38:32;31.20;44.60
21891;DHT22;11110;52.386;16.940;2023-07-31T08:41:03;31.10;44.60
21891;DHT22;11110;52.386;16.940;2023-07-31T08:43:32;31.10;44.50
21891;DHT22;11110;52.386;16.940;2023-07-31T08:46:02;31.20;44.30
21891;DHT22;11110;52.386;16.940;2023-07-31T08:48:31;31.20;44.10
21891;DHT22;11110;52.386;16.940;2023-07-31T08:51:02;31.20;44.00
21891;DHT22;11110;52.386;16.940;2023-07-31T08:53:30;31.20;44.20
21891;DHT22;11110;52.386;16.940;2023-07-31T08:55:59;31.10;44.10
21891;DHT22;11110;52.386;16.940;2023-07-31T08:58:30;31.20;44.20
21891;DHT22;11110;52.386;16.940;2023-07-31T09:01:01;31.20;44.40
21891;DHT22;11110;52.386;16.940;2023-07-31T09:03:34;31.20;44.40
21891;DHT22;11110;52.386;16.940;2023-07-31T09:06:04;31.20;44.40
21891;DHT22;11110;52.386;16.940;2023-07-31T09:08:33;31.20;44.20
21891;DHT22;11110;52.386;16.940;2023-07-31T09:11:02;31.20;44.40
21891;DHT22;11110;52.386;16.940;2023-07-31T09:13:32;31.20;44.40
21891;DHT22;11110;52.386;16.940;2023-07-31T09:16:01;31.20;44.20
21891;DHT22;11110;52.386;16.940;2023-07-31T09:18:29;31.30;44.40
21891;DHT22;11110;52.386;16.940;2023-07-31T09:21:01;31.20;44.10
21891;DHT22;11110;52.386;16.940;2023-07-31T09:23:45;31.40;44.20
21891;DHT22;11110;52.386;16.940;2023-07-31T09:26:29;31.40;43.90
21891;DHT22;11110;52.386;16.940;2023-07-31T09:28:57;31.40;43.80
21891;DHT22;11110;52.386;16.940;2023-07-31T09:31:33;31.30;43.80
21891;DHT22;11110;52.386;16.940;2023-07-31T09:34:06;31.40;43.60
21891;DHT22;11110;52.386;16.940;2023-07-31T09:36:40;31.20;43.60
21891;DHT22;11110;52.386;16.940;2023-07-31T09:39:11;31.30;44.10
21891;DHT22;11110;52.386;16.940;2023-07-31T09:41:41;31.30;44.90
21891;DHT22;11110;52.386;16.940;2023-07-31T09:44:10;31.20;44.60
21891;DHT22;11110;52.386;16.940;2023-07-31T09:46:39;31.20;44.50
21891;DHT22;11110;52.386;16.940;2023-07-31T09:49:08;31.10;44.70
21891;DHT22;11110;52.386;16.940;2023-07-31T09:51:38;31.10;45.00
21891;DHT22;11110;52.386;16.940;2023-07-31T09:54:12;31.10;45.80
21891;DHT22;11110;52.386;16.940;2023-07-31T09:56:43;31.10;45.50
21891;DHT22;11110;52.386;16.940;2023-07-31T09:59:13;31.00;46.70
21891;DHT22;11110;52.386;16.940;2023-07-31T10:01:43;31.00;46.40
21891;DHT22;11110;52.386;16.940;2023-07-31T10:04:13;31.00;47.50
21891;DHT22;11110;52.386;16.940;2023-07-31T10:06:43;30.90;47.40
21891;DHT22;11110;52.386;16.940;2023-07-31T10:09:15;30.90;46.90
21891;DHT22;11110;52.386;16.940;2023-07-31T10:11:48;30.90;47.30
21891;DHT22;11110;52.386;16.940;2023-07-31T10:14:20;30.90;47.10
21891;DHT22;11110;52.386;16.940;2023-07-31T10:16:49;31.00;47.30
21891;DHT22;11110;52.386;16.940;2023-07-31T10:19:19;30.90;47.30
21891;DHT22;11110;52.386;16.940;2023-07-31T10:21:48;30.90;47.40
21891;DHT22;11110;52.386;16.940;2023-07-31T10:24:18;30.90;47.30
21891;DHT22;11110;52.386;16.940;2023-07-31T10:26:48;31.00;47.50
21891;DHT22;11110;52.386;16.940;2023-07-31T10:29:19;31.00;47.40
21891;DHT22;11110;52.386;16.940;2023-07-31T10:31:48;31.00;47.70
21891;DHT22;11110;52.386;16.940;2023-07-31T10:34:17;31.00;47.90
21891;DHT22;11110;52.386;16.940;2023-07-31T10:36:46;31.00;47.60
21891;DHT22;11110;52.386;16.940;2023-07-31T10:39:34;31.00;47.60
21891;DHT22;11110;52.386;16.940;2023-07-31T10:42:11;31.00;47.50
21891;DHT22;11110;52.386;16.940;2023-07-31T10:44:44;31.10;47.60
21891;DHT22;11110;52.386;16.940;2023-07-31T10:47:15;31.10;47.60
21891;DHT22;11110;52.386;16.940;2023-07-31T10:49:45;31.00;47.40
21891;DHT22;11110;52.386;16.940;2023-07-31T10:52:20;31.00;47.60
21891;DHT22;11110;52.386;16.940;2023-07-31T10:55:16;31.00;47.80
21891;DHT22;11110;52.386;16.940;2023-07-31T10:57:46;31.00;48.00
21891;DHT22;11110;52.386;16.940;2023-07-31T11:00:20;31.00;48.20
21891;DHT22;11110;52.386;16.940;2023-07-31T11:02:59;31.10;48.60
21891;DHT22;11110;52.386;16.940;2023-07-31T11:05:50;31.10;48.60
21891;DHT22;11110;52.386;16.940;2023-07-31T11:08:22;31.10;48.10
21891;DHT22;11110;52.386;16.940;2023-07-31T11:11:08;31.10;48.20
21891;DHT22;11110;52.386;16.940;2023-07-31T11:13:42;31.30;48.30
21891;DHT22;11110;52.386;16.940;2023-07-31T11:16:12;31.20;48.30
21891;DHT22;11110;52.386;16.940;2023-07-31T11:18:41;31.20;48.50
21891;DHT22;11110;52.386;16.940;2023-07-31T11:21:13;31.20;48.50
21891;DHT22;11110;52.386;16.940;2023-07-31T11:23:45;31.20;48.30
21891;DHT22;11110;52.386;16.940;2023-07-31T11:26:15;31.20;48.40
21891;DHT22;11110;52.386;16.940;2023-07-31T11:28:47;31.20;48.40
21891;DHT22;11110;52.386;16.940;2023-07-31T11:31:17;31.20;48.60
21891;DHT22;11110;52.386;16.940;2023-07-31T11:33:46;31.20;48.80
21891;DHT22;11110;52.386;16.940;2023-07-31T11:36:15;31.20;48.50
21891;DHT22;11110;52.386;16.940;2023-07-31T11:38:44;31.20;48.50
21891;DHT22;11110;52.386;16.940;2023-07-31T11:41:15;31.30;48.60
21891;DHT22;11110;52.386;16.940;2023-07-31T11:43:46;31.30;48.70
21891;DHT22;11110;52.386;16.940;2023-07-31T11:46:15;30.50;48.20
21891;DHT22;11110;52.386;16.940;2023-07-31T11:48:45;31.30;48.60
21891;DHT22;11110;52.386;16.940;2023-07-31T11:51:14;31.30;48.20
21891;DHT22;11110;52.386;16.940;2023-07-31T11:53:45;31.40;48.10
21891;DHT22;11110;52.386;16.940;2023-07-31T11:56:18;31.40;47.90
21891;DHT22;11110;52.386;16.940;2023-07-31T11:58:49;31.30;48.00
21891;DHT22;11110;52.386;16.940;2023-07-31T12:01:19;31.20;47.90
21891;DHT22;11110;52.386;16.940;2023-07-31T12:03:50;31.20;48.00
21891;DHT22;11110;52.386;16.940;2023-07-31T12:06:19;31.20;48.10
21891;DHT22;11110;52.386;16.940;2023-07-31T12:08:48;31.20;48.20
21891;DHT22;11110;52.386;16.940;2023-07-31T12:11:18;31.10;48.30
21891;DHT22;11110;52.386;16.940;2023-07-31T12:13:47;31.20;48.30
21891;DHT22;11110;52.386;16.940;2023-07-31T12:16:15;31.10;48.40
21891;DHT22;11110;52.386;16.940;2023-07-31T12:18:44;31.10;48.40
21891;DHT22;11110;52.386;16.940;2023-07-31T12:21:12;31.10;48.30
21891;DHT22;11110;52.386;16.940;2023-07-31T12:23:44;31.10;48.40
21891;DHT22;11110;52.386;16.940;2023-07-31T12:26:14;31.10;48.40
21891;DHT22;11110;52.386;16.940;2023-07-31T12:28:46;31.00;48.70
21891;DHT22;11110;52.386;16.940;2023-07-31T12:31:15;31.10;48.70
21891;DHT22;11110;52.386;16.940;2023-07-31T12:33:46;31.10;48.70
21891;DHT22;11110;52.386;16.940;2023-07-31T12:36:18;31.10;48.70
21891;DHT22;11110;52.386;16.940;2023-07-31T12:38:50;31.10;48.50
21891;DHT22;11110;52.386;16.940;2023-07-31T12:41:19;31.10;48.50
21891;DHT22;11110;52.386;16.940;2023-07-31T12:43:49;31.10;48.10
21891;DHT22;11110;52.386;16.940;2023-07-31T12:46:18;31.20;48.20
21891;DHT22;11110;52.386;16.940;2023-07-31T12:48:47;31.20;48.10
21891;DHT22;11110;52.386;16.940;2023-07-31T12:51:15;31.20;48.10
21891;DHT22;11110;52.386;16.940;2023-07-31T12:53:44;31.20;48.00
21891;DHT22;11110;52.386;16.940;2023-07-31T12:56:12;31.20;47.60
21891;DHT22;11110;52.386;16.940;2023-07-31T12:58:41;31.30;47.60
21891;DHT22;11110;52.386;16.940;2023-07-31T13:01:11;31.20;47.60
21891;DHT22;11110;52.386;16.940;2023-07-31T13:03:40;31.30;47.60
21891;DHT22;11110;52.386;16.940;2023-07-31T13:06:08;31.40;47.40
21891;DHT22;11110;52.386;16.940;2023-07-31T13:08:37;31.40;47.10
21891;DHT22;11110;52.386;16.940;2023-07-31T13:11:05;31.40;47.50
21891;DHT22;11110;52.386;16.940;2023-07-31T13:13:34;31.40;47.80
21891;DHT22;11110;52.386;16.940;2023-07-31T13:16:02;31.50;47.50
21891;DHT22;11110;52.386;16.940;2023-07-31T13:18:32;31.60;47.50
21891;DHT22;11110;52.386;16.940;2023-07-31T13:21:01;31.60;47.20
21891;DHT22;11110;52.386;16.940;2023-07-31T13:23:30;31.70;47.10
21891;DHT22;11110;52.386;16.940;2023-07-31T13:25:58;31.80;47.10
21891;DHT22;11110;52.386;16.940;2023-07-31T13:28:27;31.80;47.00
21891;DHT22;11110;52.386;16.940;2023-07-31T13:30:55;31.90;47.00
21891;DHT22;11110;52.386;16.940;2023-07-31T13:33:24;31.90;46.60
21891;DHT22;11110;52.386;16.940;2023-07-31T13:36:04;32.00;46.60
21891;DHT22;11110;52.386;16.940;2023-07-31T13:38:33;32.10;46.70
21891;DHT22;11110;52.386;16.940;2023-07-31T13:41:01;32.10;46.60
21891;DHT22;11110;52.386;16.940;2023-07-31T13:43:30;32.10;46.40
21891;DHT22;11110;52.386;16.940;2023-07-31T13:45:58;32.10;46.20
21891;DHT22;11110;52.386;16.940;2023-07-31T13:48:34;32.10;46.30
21891;DHT22;11110;52.386;16.940;2023-07-31T13:51:04;32.10;46.20
21891;DHT22;11110;52.386;16.940;2023-07-31T13:53:33;32.20;46.20
21891;DHT22;11110;52.386;16.940;2023-07-31T13:56:02;32.10;46.10
21891;DHT22;11110;52.386;16.940;2023-07-31T13:58:30;32.10;46.10
21891;DHT22;11110;52.386;16.940;2023-07-31T14:00:58;32.20;46.00
21891;DHT22;11110;52.386;16.940;2023-07-31T14:03:27;32.10;46.10
21891;DHT22;11110;52.386;16.940;2023-07-31T14:05:56;32.10;46.20
21891;DHT22;11110;52.386;16.940;2023-07-31T14:08:26;32.20;46.30
21891;DHT22;11110;52.386;16.940;2023-07-31T14:10:54;32.20;46.40
21891;DHT22;11110;52.386;16.940;2023-07-31T14:13:23;32.20;46.40
21891;DHT22;11110;52.386;16.940;2023-07-31T14:15:51;32.20;46.50
21891;DHT22;11110;52.386;16.940;2023-07-31T14:18:20;32.20;46.80
21891;DHT22;11110;52.386;16.940;2023-07-31T14:20:49;32.30;46.80
21891;DHT22;11110;52.386;16.940;2023-07-31T14:23:18;32.40;46.60
21891;DHT22;11110;52.386;16.940;2023-07-31T14:25:48;32.50;46.40
21891;DHT22;11110;52.386;16.940;2023-07-31T14:28:17;32.60;46.40
21891;DHT22;11110;52.386;16.940;2023-07-31T14:30:45;32.70;46.20
21891;DHT22;11110;52.386;16.940;2023-07-31T14:33:14;32.70;45.70
21891;DHT22;11110;52.386;16.940;2023-07-31T14:35:43;32.90;45.90
21891;DHT22;11110;52.386;16.940;2023-07-31T14:38:12;33.00;45.40
21891;DHT22;11110;52.386;16.940;2023-07-31T14:40:41;33.10;44.80
21891;DHT22;11110;52.386;16.940;2023-07-31T14:43:11;33.10;44.60
21891;DHT22;11110;52.386;16.940;2023-07-31T14:45:39;33.30;44.60
21891;DHT22;11110;52.386;16.940;2023-07-31T14:48:08;33.30;44.90
21891;DHT22;11110;52.386;16.940;2023-07-31T14:50:37;33.40;44.30
21891;DHT22;11110;52.386;16.940;2023-07-31T14:53:05;33.50;44.00
21891;DHT22;11110;52.386;16.940;2023-07-31T14:55:34;33.60;44.00
21891;DHT22;11110;52.386;16.940;2023-07-31T14:58:02;33.70;44.00
21891;DHT22;11110;52.386;16.940;2023-07-31T15:00:32;33.80;43.70
21891;DHT22;11110;52.386;16.940;2023-07-31T15:03:01;33.90;43.60
21891;DHT22;11110;52.386;16.940;2023-07-31T15:05:30;34.00;43.40
21891;DHT22;11110;52.386;16.940;2023-07-31T15:07:58;34.10;42.90
21891;DHT22;11110;52.386;16.940;2023-07-31T15:10:27;34.20;42.50
21891;DHT22;11110;52.386;16.940;2023-07-31T15:12:56;34.30;42.70
21891;DHT22;11110;52.386;16.940;2023-07-31T15:15:24;34.30;42.60
21891;DHT22;11110;52.386;16.940;2023-07-31T15:17:54;34.30;42.30
21891;DHT22;11110;52.386;16.940;2023-07-31T15:20:23;34.40;42.40
21891;DHT22;11110;52.386;16.940;2023-07-31T15:22:52;34.40;42.40
21891;DHT22;11110;52.386;16.940;2023-07-31T15:25:20;34.40;42.40
21891;DHT22;11110;52.386;16.940;2023-07-31T15:27:49;34.40;42.30
21891;DHT22;11110;52.386;16.940;2023-07-31T15:30:18;34.30;42.00